Time;durP1;ratioP1;P1;durP2;ratioP2;P2;SDS_P1;SDS_P2;PMS_P1;PMS_P2;Temp;Humidity;BMP_temperature;BMP_pressure;BME280_temperature;BME280_humidity;BME280_pressure;Samples;Min_cycle;Max_cycle;Signal;HPM_P1;HPM_P2
2023/01/13 00:02:10;;;;;;;2.88;1.40;;;7.10;99.90;;;;;;5041448;28;20126;-90
2023/01/13 00:04:36;;;;;;;7.53;1.98;;;7.20;99.90;;;;;;5038111;28;20499;-91
2023/01/13 00:07:01;;;;;;;5.57;1.30;;;7.10;99.90;;;;;;5055917;28;20479;-90
2023/01/13 00:09:27;;;;;;;7.07;1.48;;;7.10;99.90;;;;;;4957284;28;20062;-91
2023/01/13 00:11:53;;;;;;;6.80;1.50;;;7.10;99.90;;;;;;4957039;28;20034;-93
2023/01/13 00:14:18;;;;;;;7.22;1.42;;;7.10;99.90;;;;;;4956981;28;20080;-90
2023/01/13 00:16:44;;;;;;;2.75;1.10;;;7.10;99.90;;;;;;4957088;28;20493;-90
2023/01/13 00:19:10;;;;;;;4.63;1.10;;;7.10;99.90;;;;;;4956837;28;20030;-91
2023/01/13 00:21:36;;;;;;;6.88;1.10;;;7.20;99.90;;;;;;4956808;28;20165;-91
2023/01/13 00:24:01;;;;;;;2.72;1.13;;;7.10;99.90;;;;;;4956855;28;20041;-90
2023/01/13 00:26:29;;;;;;;5.90;1.35;;;7.20;99.90;;;;;;4956998;28;20035;-91
2023/01/13 00:28:57;;;;;;;4.57;1.45;;;7.20;99.90;;;;;;4957059;28;20030;-92
2023/01/13 00:31:23;;;;;;;5.40;1.20;;;7.20;99.90;;;;;;4956505;28;20039;-90
2023/01/13 00:33:49;;;;;;;2.78;0.98;;;7.20;99.90;;;;;;4957150;28;20037;-92
2023/01/13 00:36:17;;;;;;;3.45;1.58;;;7.20;99.90;;;;;;4956374;28;20034;-91
2023/01/13 00:38:43;;;;;;;8.23;1.48;;;7.20;99.90;;;;;;4956064;28;20023;-92
2023/01/13 00:41:11;;;;;;;4.10;1.35;;;7.20;99.90;;;;;;4958965;28;20118;-90
2023/01/13 00:43:38;;;;;;;3.13;1.27;;;7.20;99.90;;;;;;4958822;28;20109;-90
2023/01/13 00:46:05;;;;;;;8.15;1.50;;;7.20;99.90;;;;;;4958806;28;20069;-90
2023/01/13 00:48:31;;;;;;;5.10;1.55;;;7.20;99.90;;;;;;4958787;28;20038;-90
2023/01/13 00:51:00;;;;;;;3.95;1.40;;;7.10;99.90;;;;;;4958676;28;20031;-92
2023/01/13 00:53:27;;;;;;;7.13;2.13;;;7.10;99.90;;;;;;4958785;28;20555;-90
2023/01/13 00:55:59;;;;;;;6.72;1.85;;;7.00;99.90;;;;;;4959097;28;20486;-90
2023/01/13 00:58:25;;;;;;;4.18;1.90;;;7.00;99.90;;;;;;4958291;28;20070;-90
2023/01/13 01:00:51;;;;;;;3.13;1.85;;;7.00;99.90;;;;;;4958517;28;20077;-90
2023/01/13 01:03:17;;;;;;;3.65;1.83;;;7.00;99.90;;;;;;4958302;28;20023;-91
2023/01/13 01:05:43;;;;;;;4.22;1.48;;;6.90;99.90;;;;;;4958476;28;20458;-91
2023/01/13 01:08:08;;;;;;;9.15;1.75;;;7.00;99.90;;;;;;4958390;28;20489;-90
2023/01/13 01:10:34;;;;;;;4.72;2.30;;;6.90;99.90;;;;;;4958351;28;20045;-91
2023/01/13 01:12:59;;;;;;;4.45;1.90;;;6.80;99.90;;;;;;4958618;28;20039;-90
2023/01/13 01:15:25;;;;;;;7.90;2.95;;;6.90;99.90;;;;;;4958198;28;20482;-91
2023/01/13 01:17:51;;;;;;;6.20;1.80;;;6.90;99.90;;;;;;4957883;28;20550;-90
2023/01/13 01:20:17;;;;;;;5.95;2.00;;;6.90;99.90;;;;;;4974555;28;20050;-91
2023/01/13 01:22:42;;;;;;;5.88;1.77;;;7.00;99.90;;;;;;4958286;28;20046;-92
2023/01/13 01:25:08;;;;;;;6.88;2.13;;;7.00;99.90;;;;;;4957917;28;20042;-92
2023/01/13 01:27:34;;;;;;;9.52;2.17;;;7.00;99.90;;;;;;4958077;28;20057;-91
2023/01/13 01:30:00;;;;;;;6.22;1.80;;;7.00;99.90;;;;;;4958181;28;20031;-91
2023/01/13 01:32:25;;;;;;;9.93;1.77;;;7.00;99.90;;;;;;4958067;28;20042;-91
2023/01/13 01:34:51;;;;;;;6.00;1.88;;;6.90;99.90;;;;;;4957836;28;20039;-92
2023/01/13 01:37:17;;;;;;;7.15;2.28;;;6.80;99.90;;;;;;4957924;28;20471;-91
2023/01/13 01:39:42;;;;;;;23.17;5.47;;;6.80;99.90;;;;;;4957671;28;20039;-92
2023/01/13 01:45:13;;;;;;;6.57;2.10;;;6.80;99.90;;;;;;4973852;28;20451;-92
2023/01/13 01:47:40;;;;;;;4.53;1.83;;;6.70;99.90;;;;;;4957647;28;20045;-92
2023/01/13 01:50:07;;;;;;;8.65;2.03;;;6.70;99.90;;;;;;4957018;28;20046;-92
2023/01/13 01:52:39;;;;;;;3.58;1.95;;;6.60;99.90;;;;;;4957369;28;20031;-92
2023/01/13 01:55:08;;;;;;;6.38;2.33;;;6.60;99.90;;;;;;4973542;28;20433;-92
2023/01/13 01:57:53;;;;;;;4.80;2.40;;;6.60;99.90;;;;;;4957477;28;20031;-92
2023/01/13 02:00:19;;;;;;;6.80;2.60;;;6.60;99.90;;;;;;4957306;28;20454;-92
2023/01/13 02:02:48;;;;;;;3.75;2.17;;;6.60;99.90;;;;;;4957290;28;20478;-92
2023/01/13 02:05:14;;;;;;;6.18;2.88;;;6.60;99.90;;;;;;4957617;28;20077;-92
2023/01/13 02:07:43;;;;;;;6.07;2.28;;;6.50;99.90;;;;;;4957236;28;20026;-91
2023/01/13 02:10:12;;;;;;;8.88;2.22;;;6.50;99.90;;;;;;4957046;28;20035;-92
2023/01/13 02:12:39;;;;;;;5.88;2.60;;;6.50;99.90;;;;;;4957081;28;20035;-91
2023/01/13 02:15:09;;;;;;;14.60;3.40;;;6.50;99.90;;;;;;4957002;28;20207;-91
2023/01/13 02:17:56;;;;;;;8.85;2.50;;;6.50;99.90;;;;;;4956672;28;20039;-92
2023/01/13 02:21:04;;;;;;;4.72;2.42;;;6.50;99.90;;;;;;5057408;28;20030;-91
2023/01/13 02:27:27;;;;;;;6.13;2.53;;;6.40;99.90;;;;;;4972771;28;20492;-91
2023/01/13 02:33:23;;;;;;;9.15;2.80;;;6.40;99.90;;;;;;4972446;28;20513;-92
2023/01/13 02:36:11;;;;;;;10.60;3.53;;;6.40;99.90;;;;;;4956499;28;20031;-91
2023/01/13 02:38:48;;;;;;;5.55;3.15;;;6.40;99.90;;;;;;4956508;28;20084;-91
2023/01/13 02:45:00;;;;;;;5.20;3.22;;;6.40;99.90;;;;;;4972433;28;20038;-91
2023/01/13 02:47:28;;;;;;;11.48;3.67;;;6.40;99.90;;;;;;4956189;28;20433;-92
2023/01/13 02:50:02;;;;;;;10.40;4.00;;;6.40;99.90;;;;;;4956271;28;20035;-91
2023/01/13 02:52:39;;;;;;;11.27;4.20;;;6.40;99.90;;;;;;4972362;28;20039;-91
2023/01/13 02:55:10;;;;;;;10.93;3.80;;;6.40;99.90;;;;;;4956256;28;20485;-93
2023/01/13 02:57:38;;;;;;;13.60;3.95;;;6.40;99.90;;;;;;4956067;28;20070;-92
2023/01/13 03:00:06;;;;;;;5.53;3.42;;;6.40;99.90;;;;;;4956009;28;20159;-91
2023/01/13 03:02:32;;;;;;;8.60;3.88;;;6.40;99.90;;;;;;4955854;28;20042;-91
2023/01/13 03:04:59;;;;;;;9.98;3.33;;;6.40;99.90;;;;;;4955852;28;20433;-91
2023/01/13 03:07:36;;;;;;;5.75;3.45;;;6.40;99.90;;;;;;4955766;28;20035;-91
2023/01/13 03:10:26;;;;;;;6.93;3.20;;;6.40;99.90;;;;;;4956164;28;20035;-92
2023/01/13 03:13:19;;;;;;;9.70;3.35;;;6.40;99.90;;;;;;4955830;28;20121;-91
2023/01/13 03:16:17;;;;;;;8.32;3.65;;;6.50;99.90;;;;;;4955876;28;20102;-92
2023/01/13 03:19:01;;;;;;;9.65;3.28;;;6.50;99.90;;;;;;5056633;28;20027;-92
2023/01/13 03:21:55;;;;;;;8.68;3.58;;;6.50;99.90;;;;;;4955971;28;20039;-92
2023/01/13 03:25:11;;;;;;;7.68;3.65;;;6.40;99.90;;;;;;5056688;28;20039;-92
2023/01/13 03:27:53;;;;;;;5.93;4.10;;;6.40;99.90;;;;;;4957952;28;20043;-92
2023/01/13 03:30:32;;;;;;;8.32;4.50;;;6.50;99.90;;;;;;4955855;28;20126;-92
2023/01/13 03:33:04;;;;;;;8.80;4.28;;;6.40;99.90;;;;;;4955889;28;20035;-91
2023/01/13 03:35:40;;;;;;;9.88;4.57;;;6.50;99.90;;;;;;4955582;28;20039;-92
2023/01/13 03:38:28;;;;;;;10.27;4.93;;;6.40;99.90;;;;;;4955840;28;20062;-92
2023/01/13 03:40:58;;;;;;;13.25;5.18;;;6.40;99.90;;;;;;4955666;28;20344;-92
2023/01/13 03:46:23;;;;;;;7.97;5.57;;;6.50;99.90;;;;;;4972595;28;20035;-91
2023/01/13 03:48:52;;;;;;;7.70;4.28;;;6.50;99.90;;;;;;4955700;28;20034;-91
2023/01/13 03:51:21;;;;;;;12.10;6.45;;;6.40;99.90;;;;;;4955511;28;20042;-92
2023/01/13 03:53:53;;;;;;;15.68;5.80;;;6.50;99.90;;;;;;5072842;28;20042;-91
2023/01/13 03:56:44;;;;;;;14.05;8.50;;;6.40;99.90;;;;;;4955300;28;20126;-91
2023/01/13 03:59:17;;;;;;;8.67;4.53;;;6.40;99.90;;;;;;5072976;28;20042;-91
2023/01/13 04:02:16;;;;;;;21.38;9.05;;;6.40;99.90;;;;;;4971250;28;20121;-92
2023/01/13 04:04:49;;;;;;;9.57;4.45;;;6.40;99.90;;;;;;5072878;28;20494;-91
2023/01/13 04:07:43;;;;;;;11.45;4.65;;;6.40;99.90;;;;;;4971441;28;20077;-92
2023/01/13 04:10:10;;;;;;;9.52;4.55;;;6.40;99.90;;;;;;4955485;28;20067;-92
2023/01/13 04:15:28;;;;;;;5.38;3.70;;;6.40;99.90;;;;;;4975173;28;20038;-92
2023/01/13 04:18:00;;;;;;;14.00;5.55;;;6.40;99.90;;;;;;4974833;28;20409;-91
2023/01/13 04:20:27;;;;;;;11.13;3.40;;;6.40;99.90;;;;;;4959229;28;20470;-91
2023/01/13 04:22:52;;;;;;;10.48;2.80;;;6.40;99.90;;;;;;4958600;28;20065;-91
2023/01/13 04:25:18;;;;;;;8.68;2.88;;;6.40;99.90;;;;;;4974635;28;20500;-91
2023/01/13 04:27:44;;;;;;;11.95;2.67;;;6.40;99.90;;;;;;4958409;28;20031;-92
2023/01/13 04:30:10;;;;;;;4.85;2.92;;;6.40;99.90;;;;;;4958411;28;20046;-92
2023/01/13 04:32:36;;;;;;;7.40;2.75;;;6.40;99.90;;;;;;4974712;28;20144;-91
2023/01/13 04:35:02;;;;;;;9.10;2.50;;;6.40;99.90;;;;;;4958512;28;20050;-90
2023/01/13 04:37:28;;;;;;;8.63;2.47;;;6.30;99.90;;;;;;4958655;28;20034;-91
2023/01/13 04:39:53;;;;;;;12.18;2.90;;;6.40;99.90;;;;;;4958529;28;20031;-91
2023/01/13 04:42:19;;;;;;;8.57;3.38;;;6.40;99.90;;;;;;4958194;28;20027;-92
2023/01/13 04:44:45;;;;;;;12.23;2.80;;;6.40;99.90;;;;;;4974470;28;20121;-91
2023/01/13 04:47:10;;;;;;;9.55;2.25;;;6.40;99.90;;;;;;4958262;28;20057;-92
2023/01/13 04:49:36;;;;;;;7.65;2.55;;;6.40;99.90;;;;;;4958402;28;20035;-91
2023/01/13 04:52:02;;;;;;;10.25;2.50;;;6.40;99.90;;;;;;4975444;28;20043;-91
2023/01/13 04:54:28;;;;;;;11.02;2.80;;;6.40;99.90;;;;;;4958024;28;20039;-92
2023/01/13 04:56:54;;;;;;;8.25;2.17;;;6.40;99.90;;;;;;4974089;28;20037;-91
2023/01/13 04:59:19;;;;;;;4.63;2.15;;;6.40;99.90;;;;;;4958036;28;20382;-92
2023/01/13 05:01:45;;;;;;;6.88;2.30;;;6.40;99.90;;;;;;4973983;28;20026;-91
2023/01/13 05:04:11;;;;;;;4.18;2.08;;;6.40;99.90;;;;;;4974031;28;20031;-92
2023/01/13 05:06:36;;;;;;;4.22;1.90;;;6.40;99.90;;;;;;4973942;28;20057;-92
2023/01/13 05:09:02;;;;;;;7.32;2.65;;;6.40;99.90;;;;;;4958217;28;20079;-91
2023/01/13 05:17:15;;;;;;;5.93;2.05;;;6.50;99.90;;;;;;4973770;28;20497;-92
2023/01/13 05:19:41;;;;;;;3.83;2.10;;;6.50;99.90;;;;;;4957976;28;20481;-92
2023/01/13 05:27:35;;;;;;;6.80;2.92;;;6.50;99.90;;;;;;4973722;28;20042;-92
2023/01/13 05:30:01;;;;;;;6.53;2.35;;;6.50;99.90;;;;;;4958638;28;20475;-91
2023/01/13 05:32:27;;;;;;;25.80;12.30;;;6.50;99.90;;;;;;4957936;28;20034;-90
2023/01/13 05:34:54;;;;;;;7.03;2.38;;;6.50;99.90;;;;;;4973914;28;20045;-92
2023/01/13 05:37:20;;;;;;;7.00;2.83;;;6.50;99.90;;;;;;4957699;28;20034;-90
2023/01/13 05:45:14;;;;;;;5.90;1.55;;;6.50;99.90;;;;;;4973835;28;20031;-93
2023/01/13 05:47:39;;;;;;;6.35;2.30;;;6.60;99.90;;;;;;4957776;28;20550;-92
2023/01/13 05:50:05;;;;;;;8.15;1.65;;;6.60;99.90;;;;;;4957654;28;20486;-92
2023/01/13 05:52:31;;;;;;;5.25;1.48;;;6.60;99.90;;;;;;4958004;28;20035;-92
2023/01/13 05:54:57;;;;;;;5.35;1.52;;;6.60;99.90;;;;;;4973589;28;20476;-91
2023/01/13 05:57:22;;;;;;;3.05;1.27;;;6.60;99.90;;;;;;4957962;28;20374;-90
2023/01/13 05:59:48;;;;;;;2.67;1.23;;;6.70;99.90;;;;;;4957691;28;20031;-91
2023/01/13 06:02:14;;;;;;;3.42;1.70;;;6.60;99.90;;;;;;4957491;28;20027;-91
2023/01/13 06:04:39;;;;;;;5.88;1.15;;;6.70;99.90;;;;;;4957547;28;20042;-91
2023/01/13 06:07:05;;;;;;;4.78;1.50;;;6.60;99.90;;;;;;4957689;28;20034;-91
2023/01/13 06:09:31;;;;;;;8.25;1.40;;;6.70;99.90;;;;;;4957079;28;20390;-91
2023/01/13 06:11:56;;;;;;;5.50;1.90;;;6.70;99.90;;;;;;4957870;28;20118;-91
2023/01/13 06:14:22;;;;;;;3.35;2.45;;;6.70;99.90;;;;;;4957561;28;20065;-91
2023/01/13 06:16:48;;;;;;;4.97;1.33;;;6.70;99.90;;;;;;4957581;28;20023;-92
2023/01/13 06:19:13;;;;;;;4.82;1.33;;;6.70;99.90;;;;;;4956831;28;20083;-92
2023/01/13 06:21:39;;;;;;;2.88;0.82;;;6.80;99.90;;;;;;4957351;28;20034;-90
2023/01/13 06:24:06;;;;;;;5.85;1.52;;;6.80;99.90;;;;;;4957537;28;20038;-90
2023/01/13 06:26:40;;;;;;;2.75;0.73;;;6.80;99.90;;;;;;4973592;28;20508;-92
2023/01/13 06:29:07;;;;;;;4.82;1.90;;;6.80;99.90;;;;;;5076175;28;20035;-90
2023/01/13 06:31:38;;;;;;;1.77;1.00;;;6.70;99.90;;;;;;4957916;28;20440;-91
2023/01/13 06:34:10;;;;;;;4.68;0.93;;;6.70;99.90;;;;;;4957695;28;20046;-91
2023/01/13 06:36:48;;;;;;;4.72;1.70;;;6.70;99.90;;;;;;4973746;28;20042;-90
2023/01/13 06:39:19;;;;;;;2.85;1.05;;;6.70;99.90;;;;;;4957879;28;20118;-90
2023/01/13 06:44:33;;;;;;;2.85;1.00;;;6.70;99.90;;;;;;4972555;28;20038;-92
2023/01/13 06:46:59;;;;;;;2.67;0.90;;;6.70;99.90;;;;;;4956289;28;20133;-91
2023/01/13 06:49:24;;;;;;;2.15;0.95;;;6.70;99.90;;;;;;4972741;28;20031;-91
2023/01/13 06:51:50;;;;;;;6.13;1.13;;;6.70;99.90;;;;;;4956296;28;20033;-91
2023/01/13 06:54:16;;;;;;;4.15;1.00;;;6.70;99.90;;;;;;4955998;28;20039;-91
2023/01/13 06:56:42;;;;;;;5.57;0.95;;;6.60;99.90;;;;;;4971947;28;20027;-91
2023/01/13 06:59:07;;;;;;;3.67;1.13;;;6.60;99.90;;;;;;4971804;28;20031;-90
2023/01/13 07:01:33;;;;;;;3.80;0.85;;;6.50;99.90;;;;;;4956000;28;20053;-90
2023/01/13 07:03:59;;;;;;;10.82;2.17;;;6.50;99.90;;;;;;4956184;28;20023;-91
2023/01/13 07:06:24;;;;;;;4.03;1.65;;;6.50;99.90;;;;;;4955530;28;20034;-91
2023/01/13 07:08:50;;;;;;;4.63;1.52;;;6.50;99.90;;;;;;4972816;28;20031;-91
2023/01/13 07:11:16;;;;;;;9.23;1.63;;;6.50;99.90;;;;;;4971562;28;20485;-90
2023/01/13 07:16:26;;;;;;;4.85;2.15;;;6.40;99.90;;;;;;4971836;28;20038;-92
2023/01/13 07:18:53;;;;;;;4.43;2.67;;;6.40;99.90;;;;;;4956584;28;20031;-93
2023/01/13 07:21:19;;;;;;;4.90;2.55;;;6.40;99.90;;;;;;4956515;28;20031;-93
2023/01/13 07:23:46;;;;;;;6.43;4.20;;;6.40;99.90;;;;;;4956568;28;20478;-92
2023/01/13 07:26:12;;;;;;;39.63;15.52;;;6.40;99.90;;;;;;4956106;28;20422;-91
2023/01/13 07:28:38;;;;;;;52.03;20.05;;;6.40;99.90;;;;;;4956055;28;20075;-92
2023/01/13 07:31:11;;;;;;;28.65;14.90;;;6.40;99.90;;;;;;4955587;28;20394;-91
2023/01/13 07:33:37;;;;;;;10.15;5.85;;;6.40;99.90;;;;;;4971736;28;20042;-92
2023/01/13 07:36:04;;;;;;;3.60;2.60;;;6.40;99.90;;;;;;4971898;28;20027;-92
2023/01/13 07:38:31;;;;;;;7.20;2.13;;;6.40;99.90;;;;;;4972004;28;20027;-92
2023/01/13 07:40:56;;;;;;;13.82;7.32;;;6.40;99.90;;;;;;4955840;28;20019;-92
2023/01/13 07:43:31;;;;;;;5.72;1.50;;;6.40;99.90;;;;;;4955612;28;20034;-91
2023/01/13 07:46:03;;;;;;;2.42;1.60;;;6.30;99.90;;;;;;4955577;28;20035;-91
2023/01/13 07:48:29;;;;;;;1.40;1.30;;;6.30;99.90;;;;;;4972343;28;20092;-91
2023/01/13 07:50:55;;;;;;;2.15;1.15;;;6.20;99.90;;;;;;4959401;28;20038;-92
2023/01/13 07:53:24;;;;;;;1.67;1.13;;;6.20;99.90;;;;;;4959781;28;20031;-92
2023/01/13 07:55:49;;;;;;;1.35;1.10;;;6.20;99.90;;;;;;4975528;28;20497;-92
2023/01/13 07:58:15;;;;;;;3.72;1.20;;;6.20;99.90;;;;;;4959817;28;20031;-92
2023/01/13 08:00:40;;;;;;;5.60;2.22;;;6.10;99.90;;;;;;4959729;28;20030;-93
2023/01/13 08:03:06;;;;;;;2.00;1.30;;;6.10;99.90;;;;;;4959568;28;20615;-94
2023/01/13 08:05:35;;;;;;;6.60;2.83;;;6.10;99.90;;;;;;4975423;28;20030;-92
2023/01/13 08:08:00;;;;;;;4.95;1.92;;;6.10;99.90;;;;;;4959020;28;20066;-92
2023/01/13 08:10:26;;;;;;;2.70;1.20;;;6.10;99.90;;;;;;5060197;28;20076;-92
2023/01/13 08:15:36;;;;;;;1.55;1.05;;;6.00;99.90;;;;;;4974781;28;20038;-92
2023/01/13 08:18:02;;;;;;;5.88;1.65;;;5.90;99.90;;;;;;4975154;28;20062;-92
2023/01/13 08:20:27;;;;;;;2.20;0.77;;;5.90;99.90;;;;;;4959013;28;20080;-92
2023/01/13 08:22:57;;;;;;;7.65;1.27;;;5.90;99.90;;;;;;4960099;28;20177;-91
2023/01/13 08:25:25;;;;;;;3.30;1.00;;;5.90;99.90;;;;;;4975395;28;20035;-93
2023/01/13 08:27:50;;;;;;;4.70;1.15;;;5.80;99.90;;;;;;4959294;28;20027;-93
2023/01/13 08:30:16;;;;;;;7.00;1.90;;;5.80;99.90;;;;;;4959013;28;20046;-93
2023/01/13 08:32:47;;;;;;;8.82;1.20;;;5.80;99.90;;;;;;4958683;28;20035;-92
2023/01/13 08:35:13;;;;;;;6.70;1.20;;;5.70;99.90;;;;;;4958296;28;20125;-92
2023/01/13 08:37:39;;;;;;;9.35;1.33;;;5.70;99.90;;;;;;4959270;28;20023;-93
2023/01/13 08:40:06;;;;;;;3.80;1.63;;;5.70;99.90;;;;;;4975656;28;20582;-93
2023/01/13 08:42:31;;;;;;;3.78;1.70;;;5.70;99.90;;;;;;4959188;28;20027;-92
2023/01/13 08:44:57;;;;;;;5.53;2.10;;;5.70;99.90;;;;;;4959514;28;20038;-93
2023/01/13 08:47:23;;;;;;;5.97;1.90;;;5.80;99.90;;;;;;4959195;28;20034;-93
2023/01/13 08:49:49;;;;;;;8.25;1.30;;;5.80;99.90;;;;;;4958957;28;20034;-93
2023/01/13 08:52:15;;;;;;;4.68;1.42;;;5.80;99.90;;;;;;4958921;28;20039;-92
2023/01/13 08:54:41;;;;;;;5.72;1.10;;;5.70;99.90;;;;;;4974886;28;20324;-92
2023/01/13 08:57:06;;;;;;;2.67;1.13;;;5.60;99.90;;;;;;4958800;28;20069;-92
2023/01/13 08:59:32;;;;;;;5.88;2.13;;;5.60;99.90;;;;;;4958452;28;20027;-92
2023/01/13 09:01:58;;;;;;;5.95;1.80;;;5.60;99.90;;;;;;4958691;28;20054;-92
2023/01/13 09:04:26;;;;;;;8.77;1.73;;;5.60;99.90;;;;;;4958622;28;20034;-92
2023/01/13 09:06:53;;;;;;;32.03;11.40;;;5.60;99.90;;;;;;5076158;28;20053;-92
2023/01/13 09:09:20;;;;;;;21.88;7.60;;;5.70;99.90;;;;;;4958643;28;20455;-92
2023/01/13 09:14:35;;;;;;;6.25;1.23;;;5.70;99.90;;;;;;4974493;28;20080;-93
2023/01/13 09:17:01;;;;;;;9.45;1.90;;;5.70;99.90;;;;;;5076234;28;20063;-93
2023/01/13 09:19:27;;;;;;;4.47;2.05;;;5.70;99.90;;;;;;4958028;28;20026;-92
2023/01/13 09:21:54;;;;;;;3.58;1.35;;;5.60;99.90;;;;;;4974151;28;20031;-92
2023/01/13 09:24:20;;;;;;;6.75;2.45;;;5.60;99.90;;;;;;4958293;28;20394;-92
2023/01/13 09:26:46;;;;;;;7.22;1.70;;;5.60;99.90;;;;;;4975339;28;20123;-93
2023/01/13 09:29:12;;;;;;;4.97;1.33;;;5.60;99.90;;;;;;4957473;28;20038;-92
2023/01/13 09:31:38;;;;;;;6.10;1.60;;;5.70;99.90;;;;;;5075596;28;20035;-92
2023/01/13 09:36:50;;;;;;;10.05;1.45;;;5.70;99.90;;;;;;4973817;28;20057;-92
2023/01/13 09:39:16;;;;;;;5.53;1.52;;;5.70;99.90;;;;;;4958446;28;20034;-92
2023/01/13 09:44:47;;;;;;;7.75;1.40;;;5.80;99.90;;;;;;4974123;28;20031;-92
2023/01/13 09:47:23;;;;;;;9.75;2.60;;;5.80;99.90;;;;;;4958275;28;20065;-92
2023/01/13 09:49:49;;;;;;;7.95;1.55;;;5.80;99.90;;;;;;4957797;28;20070;-92
2023/01/13 09:52:26;;;;;;;9.98;1.80;;;5.90;99.90;;;;;;4957555;28;20387;-92
2023/01/13 09:55:03;;;;;;;4.07;1.70;;;6.10;99.90;;;;;;4957547;28;20461;-91
2023/01/13 09:57:35;;;;;;;8.30;2.10;;;6.40;99.90;;;;;;4973708;28;20031;-91
2023/01/13 10:00:00;;;;;;;;;;;6.40;99.90;;;;;;5075984;28;20030;-92
2023/01/13 10:02:55;;;;;;;6.65;2.08;;;6.50;99.90;;;;;;4973710;28;19917;-91
2023/01/13 10:05:43;;;;;;;9.02;3.15;;;6.50;99.90;;;;;;5058596;28;20070;-92
2023/01/13 10:08:29;;;;;;;12.75;3.13;;;6.60;99.90;;;;;;5075507;28;20093;-91
2023/01/13 10:13:13;;;;;;;10.15;3.17;;;6.70;99.90;;;;;;4957041;28;20039;-90
2023/01/13 10:14:09;;;;;;;7.13;2.10;;;6.60;99.90;;;;;;4974191;28;20035;-92
2023/01/13 10:17:13;;;;;;;10.43;2.58;;;6.60;99.90;;;;;;4957353;28;20435;-91
2023/01/13 10:19:53;;;;;;;12.88;2.33;;;6.40;99.90;;;;;;4957703;28;20038;-91
2023/01/13 10:22:31;;;;;;;9.77;3.30;;;6.40;99.90;;;;;;4957473;28;20031;-92
2023/01/13 10:25:21;;;;;;;11.52;2.80;;;6.50;99.90;;;;;;4957722;28;20042;-91
2023/01/13 10:27:49;;;;;;;9.77;2.67;;;6.60;99.90;;;;;;4957474;28;20030;-91
2023/01/13 10:30:20;;;;;;;4.70;2.08;;;6.60;99.90;;;;;;4957673;28;20462;-92
2023/01/13 10:32:50;;;;;;;;;;;6.60;99.90;;;;;;4957824;28;20035;-92
2023/01/13 10:35:15;;;;;;;21.20;3.30;;;6.60;99.90;;;;;;4973707;28;19947;-91
2023/01/13 10:37:56;;;;;;;5.75;2.40;;;6.60;99.90;;;;;;4957246;28;20495;-91
2023/01/13 10:40:21;;;;;;;6.95;2.13;;;6.70;99.90;;;;;;4957607;28;20031;-91
2023/01/13 10:42:47;;;;;;;8.63;2.65;;;6.60;99.90;;;;;;4957504;28;20438;-91
2023/01/13 10:45:24;;;;;;;14.93;3.20;;;6.50;99.90;;;;;;4957768;28;20470;-89
2023/01/13 10:48:06;;;;;;;9.68;2.55;;;6.40;99.90;;;;;;4957239;28;20439;-90
2023/01/13 10:50:34;;;;;;;9.50;1.90;;;6.50;99.90;;;;;;4957271;28;20065;-92
2023/01/13 10:53:14;;;;;;;11.43;2.58;;;6.50;99.90;;;;;;4957276;28;20035;-91
2023/01/13 10:55:40;;;;;;;12.88;2.50;;;6.60;99.90;;;;;;4957269;28;20031;-91
2023/01/13 10:58:16;;;;;;;10.50;1.83;;;6.50;99.90;;;;;;4957546;28;20035;-90
2023/01/13 11:00:41;;;;;;;6.03;1.90;;;6.50;99.90;;;;;;4957788;28;20030;-91
2023/01/13 11:03:22;;;;;;;13.35;2.55;;;6.50;99.90;;;;;;4957191;28;20494;-91
2023/01/13 11:05:59;;;;;;;10.98;2.78;;;6.40;99.90;;;;;;4956956;28;20077;-91
2023/01/13 11:08:30;;;;;;;7.55;2.30;;;6.40;99.90;;;;;;4956720;28;20121;-91
2023/01/13 11:10:58;;;;;;;8.48;2.78;;;6.50;99.90;;;;;;5074793;28;20359;-90
2023/01/13 11:14:31;;;;;;;9.55;2.60;;;6.50;99.90;;;;;;4957168;28;20035;-92
2023/01/13 11:16:27;;;;;;;13.27;3.85;;;6.40;99.90;;;;;;4972786;28;20045;-91
2023/01/13 11:19:12;;;;;;;20.63;6.43;;;6.60;99.90;;;;;;4956988;28;20490;-91
2023/01/13 11:22:05;;;;;;;13.85;4.85;;;6.50;99.90;;;;;;4972820;28;20050;-90
2023/01/13 11:24:55;;;;;;;13.50;3.15;;;6.40;99.90;;;;;;5057355;28;20076;-90
2023/01/13 11:27:29;;;;;;;16.92;4.15;;;6.60;99.90;;;;;;5073924;28;20126;-91
2023/01/13 11:30:15;;;;;;;16.92;5.13;;;6.60;99.90;;;;;;4956576;28;20442;-90
2023/01/13 11:33:09;;;;;;;17.52;3.45;;;6.60;99.90;;;;;;4956661;28;20034;-90
2023/01/13 11:35:42;;;;;;;11.43;2.70;;;6.60;99.90;;;;;;4956769;28;20125;-90
2023/01/13 11:38:28;;;;;;;14.07;3.78;;;6.80;99.90;;;;;;4956456;28;20031;-91
2023/01/13 11:41:00;;;;;;;10.27;2.75;;;6.90;99.90;;;;;;4940981;28;20037;-90
2023/01/13 11:43:36;;;;;;;11.73;3.75;;;7.00;99.90;;;;;;4956471;28;20467;-91
2023/01/13 11:46:02;;;;;;;18.50;4.57;;;7.00;99.90;;;;;;4956584;28;20058;-90
2023/01/13 11:48:32;;;;;;;15.75;3.30;;;7.00;99.90;;;;;;4956392;28;20034;-90
2023/01/13 11:51:07;;;;;;;12.60;3.83;;;7.30;99.90;;;;;;4956182;28;20080;-91
2023/01/13 11:53:43;;;;;;;17.05;3.83;;;7.80;99.90;;;;;;4957005;28;20035;-92
2023/01/13 11:56:28;;;;;;;12.65;3.30;;;7.80;99.90;;;;;;4956260;28;20084;-91
2023/01/13 11:59:05;;;;;;;11.27;2.30;;;7.60;99.90;;;;;;4956673;28;20034;-90
2023/01/13 12:01:53;;;;;;;7.57;2.80;;;7.50;99.90;;;;;;4956858;28;20035;-90
2023/01/13 12:04:22;;;;;;;6.55;1.83;;;7.20;99.90;;;;;;4956022;28;20065;-92
2023/01/13 12:06:57;;;;;;;14.77;3.15;;;7.10;99.90;;;;;;4956201;28;20548;-91
2023/01/13 12:09:46;;;;;;;12.68;4.28;;;7.00;99.90;;;;;;4956318;28;20031;-91
2023/01/13 12:12:32;;;;;;;11.52;3.47;;;6.90;99.90;;;;;;4956193;28;20035;-90
2023/01/13 12:15:07;;;;;;;8.65;3.13;;;6.90;99.90;;;;;;4956436;28;20118;-91
2023/01/13 12:17:51;;;;;;;11.88;3.30;;;7.10;99.90;;;;;;4956252;28;20054;-93
2023/01/13 12:20:49;;;;;;;9.90;3.50;;;7.30;99.90;;;;;;4956343;28;20031;-91
2023/01/13 12:23:43;;;;;;;11.63;2.33;;;7.10;99.90;;;;;;4956511;28;20035;-91
2023/01/13 12:26:11;;;;;;;12.10;2.05;;;7.00;99.90;;;;;;4977506;28;20050;-92
2023/01/13 12:28:58;;;;;;;13.52;2.13;;;7.30;99.90;;;;;;4956844;28;20035;-90
2023/01/13 12:31:24;;;;;;;11.55;3.33;;;7.60;99.90;;;;;;4955959;28;20031;-91
2023/01/13 12:34:32;;;;;;;8.55;1.95;;;7.60;99.90;;;;;;4957111;28;20023;-91
2023/01/13 12:37:31;;;;;;;9.60;2.00;;;7.40;99.90;;;;;;4976524;28;20035;-91
2023/01/13 12:40:24;;;;;;;11.18;2.05;;;7.10;99.90;;;;;;4959828;28;20066;-90
2023/01/13 12:46:18;;;;;;;10.75;2.28;;;6.60;99.90;;;;;;4975168;28;20042;-91
2023/01/13 12:48:55;;;;;;;9.63;1.75;;;6.40;99.90;;;;;;5059904;28;20026;-90
2023/01/13 12:51:23;;;;;;;12.00;2.25;;;6.40;99.90;;;;;;4959737;28;20432;-91
2023/01/13 12:53:50;;;;;;;12.50;2.90;;;6.30;99.90;;;;;;5077139;28;20104;-92
2023/01/13 12:56:30;;;;;;;13.93;2.53;;;6.10;99.90;;;;;;4974722;28;20701;-94
2023/01/13 12:59:15;;;;;;;11.52;2.33;;;5.60;99.90;;;;;;4958153;28;20030;-92
2023/01/13 13:01:41;;;;;;;23.90;5.45;;;5.20;99.90;;;;;;4958527;28;20031;-93
2023/01/13 13:04:13;;;;;;;14.70;2.67;;;5.00;99.90;;;;;;5076560;28;20031;-92
2023/01/13 13:06:43;;;;;;;17.90;2.40;;;4.90;99.90;;;;;;4958825;28;20035;-94
2023/01/13 13:09:22;;;;;;;11.35;3.47;;;4.90;99.90;;;;;;4975320;28;20034;-94
2023/01/13 13:14:41;;;;;;;17.83;3.35;;;4.90;99.90;;;;;;4974799;28;20344;-93
2023/01/13 13:17:28;;;;;;;12.02;2.45;;;4.90;99.90;;;;;;4958816;28;20076;-93
2023/01/13 13:19:55;;;;;;;9.55;1.83;;;4.90;99.90;;;;;;4958674;28;20031;-94
2023/01/13 13:22:26;;;;;;;12.02;2.28;;;4.90;99.90;;;;;;4975107;28;20375;-94
2023/01/13 13:24:56;;;;;;;12.18;3.00;;;4.80;99.90;;;;;;4958661;28;20383;-94
2023/01/13 13:27:26;;;;;;;10.00;2.60;;;4.90;99.90;;;;;;4959148;28;20045;-94
2023/01/13 13:30:18;;;;;;;15.88;2.10;;;4.90;99.90;;;;;;4958262;28;20031;-92
2023/01/13 13:33:06;;;;;;;15.55;3.30;;;4.90;99.90;;;;;;5059621;28;20126;-95
2023/01/13 13:35:59;;;;;;;14.18;3.00;;;5.00;99.90;;;;;;5059825;28;20034;-93
2023/01/13 13:47:23;;;;;;;11.60;2.45;;;5.30;99.90;;;;;;4973650;28;20167;-93
2023/01/13 13:49:53;;;;;;;10.20;2.00;;;5.30;99.90;;;;;;4958916;28;20073;-92
2023/01/13 13:52:39;;;;;;;16.05;2.35;;;5.30;99.90;;;;;;4958283;28;20081;-91
2023/01/13 13:55:14;;;;;;;20.77;4.82;;;5.30;99.90;;;;;;5075999;28;20039;-93
2023/01/13 13:57:45;;;;;;;12.02;3.15;;;5.40;99.90;;;;;;5076149;28;20038;-95
2023/01/13 14:00:14;;;;;;;18.60;3.05;;;5.40;99.90;;;;;;4958129;28;20038;-94
2023/01/13 14:02:48;;;;;;;12.35;2.63;;;5.40;99.90;;;;;;4958223;28;20026;-94
2023/01/13 14:05:24;;;;;;;13.00;4.28;;;5.40;99.90;;;;;;4958010;28;20065;-93
2023/01/13 14:08:15;;;;;;;16.48;2.72;;;5.50;99.90;;;;;;4958012;28;20026;-91
2023/01/13 14:10:43;;;;;;;12.87;2.37;;;5.40;99.90;;;;;;4963060;28;20146;-91
2023/01/13 14:13:30;;;;;;;12.23;2.13;;;5.30;99.90;;;;;;4957961;28;20106;-90
2023/01/13 14:16:04;;;;;;;10.90;2.45;;;5.20;99.90;;;;;;4957858;28;20035;-94
2023/01/13 14:18:32;;;;;;;14.65;4.57;;;5.20;99.90;;;;;;4975470;28;20080;-94
2023/01/13 14:21:16;;;;;;;26.88;3.50;;;5.20;99.90;;;;;;4958391;28;20027;-94
2023/01/13 14:23:59;;;;;;;29.65;5.40;;;5.30;99.90;;;;;;4958028;28;20070;-95
2023/01/13 14:26:28;;;;;;;13.15;3.40;;;5.30;99.90;;;;;;4957802;28;20052;-91